Time;durP1;ratioP1;P1;durP2;ratioP2;P2;SDS_P1;SDS_P2;PMS_P1;PMS_P2;Temp;Humidity;BMP_temperature;BMP_pressure;BME280_temperature;BME280_humidity;BME280_pressure;Samples;Min_cycle;Max_cycle;Signal;HPM_P1;HPM_P2
2022/08/13 00:00:14;;;;;;;4.80;3.92;;;;;;;24.82;53.72;94693.47;5076227;28;20098;-57
2022/08/13 00:02:42;;;;;;;4.68;4.18;;;;;;;23.84;53.70;94552.66;5055986;28;20542;-56
2022/08/13 00:05:09;;;;;;;6.47;4.90;;;;;;;24.73;54.31;94693.16;5077921;28;20052;-54
2022/08/13 00:07:35;;;;;;;7.97;4.70;;;;;;;24.65;54.24;94684.13;5059946;28;20027;-55
2022/08/13 00:10:01;;;;;;;5.53;4.38;;;;;;;24.38;53.56;94644.44;5079023;28;20066;-56
2022/08/13 00:15:26;;;;;;;5.90;4.93;;;;;;;24.30;53.38;94605.34;5079786;28;20521;-55
2022/08/13 00:17:51;;;;;;;6.18;4.95;;;;;;;24.60;54.46;94657.66;5081081;28;20026;-55
2022/08/13 00:20:22;;;;;;;7.90;5.00;;;;;;;24.33;53.79;94609.78;5078983;28;20066;-55
2022/08/13 00:22:48;;;;;;;6.70;4.85;;;;;;;24.69;54.23;94668.16;5053602;28;20497;-54
2022/08/13 00:25:13;;;;;;;8.52;5.45;;;;;;;24.45;54.30;94632.88;5075501;28;20071;-55
2022/08/13 00:27:39;;;;;;;6.18;4.88;;;;;;;24.51;53.78;94642.47;5076369;28;20367;-56
2022/08/13 00:30:05;;;;;;;6.45;4.75;;;;;;;24.69;53.75;94668.16;5086594;27;20780;-55
2022/08/13 00:32:31;;;;;;;7.40;5.53;;;;;;;23.53;53.04;94496.19;5085688;28;20043;-56
2022/08/13 00:34:57;;;;;;;7.97;5.25;;;;;;;24.65;53.55;94668.50;5068048;27;20028;-55
2022/08/13 00:37:25;;;;;;;6.68;4.88;;;;;;;24.53;53.73;94661.03;5080629;28;20020;-54
2022/08/13 00:39:50;;;;;;;7.00;5.20;;;;;;;24.58;53.59;94662.94;5087047;28;20039;-58
2022/08/13 00:42:23;;;;;;;6.35;4.93;;;;;;;24.24;53.69;94612.91;5086403;27;20036;-54
2022/08/13 00:44:49;;;;;;;6.38;5.10;;;;;;;24.58;54.33;94662.94;5086937;28;20089;-55
2022/08/13 00:49:59;;;;;;;6.72;4.88;;;;;;;24.48;54.10;94659.88;5085478;28;20104;-57
2022/08/13 00:52:30;;;;;;;8.70;5.13;;;;;;;24.60;53.95;94663.88;5078205;28;20429;-54
2022/08/13 00:54:59;;;;;;;6.28;5.13;;;;;;;24.50;54.33;94662.09;5074124;27;20039;-56
2022/08/13 00:57:28;;;;;;;6.90;5.10;;;;;;;24.49;54.68;94657.88;5084828;28;20044;-55
2022/08/13 00:59:54;;;;;;;7.22;4.90;;;;;;;24.36;54.15;94652.41;5081987;27;20036;-58
2022/08/13 01:02:20;;;;;;;6.78;5.10;;;;;;;24.31;54.50;94645.03;5066823;28;20115;-57
2022/08/13 01:04:46;;;;;;;5.95;4.85;;;;;;;24.55;54.06;94658.50;5084825;28;20032;-57
2022/08/13 01:07:13;;;;;;;6.78;5.35;;;;;;;24.55;54.37;94658.50;5076813;28;20108;-55
2022/08/13 01:09:39;;;;;;;7.60;4.95;;;;;;;24.57;54.17;94655.97;5064058;28;20033;-56
2022/08/13 01:12:05;;;;;;;6.55;5.18;;;;;;;24.11;54.73;94604.72;5084132;28;20081;-57
2022/08/13 01:14:32;;;;;;;6.82;4.97;;;;;;;24.47;54.75;94671.34;5084646;28;20055;-58
2022/08/13 01:17:01;;;;;;;6.20;4.90;;;;;;;24.35;54.66;94623.66;5083679;27;20036;-57
2022/08/13 01:19:26;;;;;;;8.50;5.90;;;;;;;24.22;55.22;94631.81;5085516;28;20024;-52
2022/08/13 01:21:52;;;;;;;6.53;5.20;;;;;;;24.41;54.96;94671.41;5066430;28;20462;-56
2022/08/13 01:24:17;;;;;;;7.07;4.88;;;;;;;24.40;55.26;94663.75;5051311;28;20036;-58
2022/08/13 01:26:43;;;;;;;6.22;4.82;;;;;;;24.44;55.10;94669.66;5085880;28;20059;-56
2022/08/13 01:29:08;;;;;;;7.32;5.13;;;;;;;24.34;55.19;94644.75;5086234;28;20127;-57
2022/08/13 01:31:34;;;;;;;8.13;5.25;;;;;;;24.39;55.30;94668.50;5067233;28;20466;-57
2022/08/13 01:34:00;;;;;;;6.85;5.15;;;;;;;24.17;54.91;94624.47;5074702;28;20032;-58
2022/08/13 01:36:27;;;;;;;7.03;5.20;;;;;;;24.45;55.02;94660.19;5061121;28;21097;-57
2022/08/13 01:38:52;;;;;;;5.88;4.90;;;;;;;24.24;54.76;94623.09;5076499;28;20036;-56
2022/08/13 01:41:18;;;;;;;6.38;5.15;;;;;;;24.39;54.76;94651.38;5084368;28;20154;-55
2022/08/13 01:43:43;;;;;;;6.70;4.78;;;;;;;24.41;54.82;94648.88;5066383;28;20401;-57
2022/08/13 01:46:10;;;;;;;6.25;5.10;;;;;;;24.05;54.72;94601.38;5068648;28;20032;-57
2022/08/13 01:51:23;;;;;;;5.10;4.60;;;;;;;24.18;55.14;94634.09;5062153;28;20043;-56
2022/08/13 01:53:49;;;;;;;7.30;5.47;;;;;;;24.31;54.80;94639.59;5073638;28;20092;-55
2022/08/13 01:56:19;;;;;;;6.60;4.82;;;;;;;24.21;55.09;94624.88;5063848;28;20040;-56
2022/08/13 01:58:47;;;;;;;6.18;5.25;;;;;;;24.32;54.79;94641.06;5056233;28;20037;-55
2022/08/13 02:01:13;;;;;;;5.57;4.50;;;;;;;24.29;54.86;94636.66;5070866;28;20514;-55
2022/08/13 02:03:40;;;;;;;5.30;4.78;;;;;;;24.18;55.18;94620.47;5066664;28;20040;-55
2022/08/13 02:06:06;;;;;;;5.80;4.90;;;;;;;24.16;54.77;94623.00;5073937;28;20036;-54
2022/08/13 02:08:33;;;;;;;6.72;5.10;;;;;;;23.71;55.25;94555.38;5074498;28;20036;-55
2022/08/13 02:10:58;;;;;;;5.43;4.88;;;;;;;23.94;55.03;94590.63;5059601;28;20123;-55
2022/08/13 02:13:27;;;;;;;5.47;4.68;;;;;;;24.22;54.66;94618.16;5080890;28;20513;-56
2022/08/13 02:15:52;;;;;;;8.57;5.00;;;;;;;24.19;54.54;94627.41;5030867;28;20101;-55
2022/08/13 02:18:23;;;;;;;6.70;4.70;;;;;;;24.09;54.16;94607.22;5064542;28;20040;-57
2022/08/13 02:20:53;;;;;;;6.40;5.20;;;;;;;24.02;54.09;94591.50;5069921;28;20033;-56
2022/08/13 02:23:21;;;;;;;9.02;5.55;;;;;;;24.33;53.70;94637.09;5041055;28;20076;-56
2022/08/13 02:25:47;;;;;;;5.50;5.00;;;;;;;24.14;53.81;94625.50;5056937;28;20473;-58
2022/08/13 02:28:14;;;;;;;6.90;5.13;;;;;;;24.13;53.72;94621.31;5063894;28;20073;-58
2022/08/13 02:30:41;;;;;;;5.68;4.90;;;;;;;24.26;54.31;94631.47;5062570;28;20036;-57
2022/08/13 02:33:06;;;;;;;6.22;4.90;;;;;;;23.70;53.79;94553.91;5070716;28;20047;-56
2022/08/13 02:35:35;;;;;;;5.03;4.35;;;;;;;23.79;54.18;94578.03;5051808;28;20455;-56
2022/08/13 02:38:01;;;;;;;5.75;4.68;;;;;;;24.27;54.38;94641.16;5057208;28;20044;-55
2022/08/13 02:43:12;;;;;;;5.20;4.40;;;;;;;24.22;54.67;94637.25;5081754;28;20105;-55
2022/08/13 02:45:38;;;;;;;4.82;4.32;;;;;;;24.22;54.73;94631.81;5075832;28;20455;-56
2022/08/13 02:48:05;;;;;;;5.13;4.22;;;;;;;23.84;54.07;94577.97;5050774;28;20510;-55
2022/08/13 02:50:31;;;;;;;4.80;4.30;;;;;;;24.07;54.45;94619.94;5055651;28;20045;-55
2022/08/13 02:52:57;;;;;;;4.93;4.43;;;;;;;24.12;54.05;94630.72;5061658;28;20046;-58
2022/08/13 02:55:22;;;;;;;5.68;4.55;;;;;;;24.22;53.82;94637.25;5082031;28;20020;-57
2022/08/13 02:57:49;;;;;;;5.38;4.40;;;;;;;24.19;54.28;94632.84;5077257;28;20422;-55
2022/08/13 03:00:15;;;;;;;5.75;4.55;;;;;;;24.05;54.28;94612.28;5075331;28;20121;-54
2022/08/13 03:02:44;;;;;;;6.45;4.60;;;;;;;24.09;54.54;94617.41;5073962;28;20123;-55
2022/08/13 03:05:14;;;;;;;5.47;4.68;;;;;;;24.14;54.48;94635.66;5067510;28;20048;-57
2022/08/13 03:07:41;;;;;;;;;;;;;;;24.10;54.25;94636.00;5069769;28;20032;-58
2022/08/13 03:10:11;;;;;;;5.20;4.13;;;;;;;23.60;53.74;94583.53;5081720;28;20014;-57
2022/08/13 03:12:43;;;;;;;4.90;4.05;;;;;;;23.98;54.69;94623.81;5058407;28;20080;-56
2022/08/13 03:15:10;;;;;;;5.25;4.07;;;;;;;24.01;54.49;94620.03;5064460;28;20071;-58
2022/08/13 03:17:36;;;;;;;5.65;4.35;;;;;;;24.14;54.75;94636.44;5062480;28;20037;-59
2022/08/13 03:20:03;;;;;;;4.78;4.10;;;;;;;23.81;55.22;94600.06;5066482;28;20496;-56
2022/08/13 03:22:28;;;;;;;4.70;4.07;;;;;;;24.07;55.37;94633.59;5068645;28;20027;-55
2022/08/13 03:24:54;;;;;;;5.93;4.30;;;;;;;24.07;55.42;94642.50;5071316;28;20533;-54
2022/08/13 03:27:19;;;;;;;5.18;4.18;;;;;;;23.75;55.65;94599.41;5068298;28;20051;-53
2022/08/13 03:29:45;;;;;;;5.10;4.30;;;;;;;24.02;55.41;94640.59;5062786;28;20032;-55
2022/08/13 03:32:11;;;;;;;5.07;4.20;;;;;;;24.09;55.55;94650.16;5053246;28;20041;-54
2022/08/13 03:34:36;;;;;;;5.07;4.00;;;;;;;23.66;55.45;94586.19;5030720;28;20032;-55
2022/08/13 03:37:02;;;;;;;5.20;4.47;;;;;;;24.11;55.39;94651.13;5074842;28;20043;-55
2022/08/13 03:39:29;;;;;;;6.13;4.40;;;;;;;24.12;55.31;94649.84;5083263;28;20119;-56
2022/08/13 03:41:55;;;;;;;5.13;4.63;;;;;;;23.51;55.49;94570.31;5082159;28;20069;-55
2022/08/13 03:44:21;;;;;;;6.30;4.32;;;;;;;23.49;55.64;94561.19;5081507;28;20123;-56
2022/08/13 03:46:47;;;;;;;5.15;4.65;;;;;;;23.88;55.11;94641.84;5077779;28;20474;-56
2022/08/13 03:49:13;;;;;;;6.43;4.00;;;;;;;24.05;55.56;94650.47;5055935;28;20055;-55
2022/08/13 03:51:39;;;;;;;6.57;4.75;;;;;;;23.48;55.13;94559.69;5048244;28;20044;-59
2022/08/13 03:54:05;;;;;;;4.82;4.30;;;;;;;24.11;54.64;94653.84;5077956;28;20357;-55
2022/08/13 03:56:31;;;;;;;7.35;4.75;;;;;;;24.04;54.42;94638.09;5065196;28;20068;-57
2022/08/13 03:58:56;;;;;;;5.10;4.50;;;;;;;23.60;54.77;94582.78;5064589;28;20424;-57
2022/08/13 04:01:22;;;;;;;4.95;4.43;;;;;;;23.99;54.51;94641.66;5062469;28;20414;-55
2022/08/13 04:03:47;;;;;;;6.30;4.57;;;;;;;24.00;54.28;94632.19;5084673;28;20403;-56
2022/08/13 04:06:16;;;;;;;5.30;4.80;;;;;;;24.08;55.00;94649.44;5072412;28;20040;-58
2022/08/13 04:08:44;;;;;;;5.35;4.60;;;;;;;24.10;54.82;94652.34;5069803;28;20059;-57
2022/08/13 04:11:14;;;;;;;4.88;4.38;;;;;;;24.04;55.23;94654.44;5070841;28;20036;-57
2022/08/13 04:13:40;;;;;;;5.90;4.60;;;;;;;23.56;55.27;94576.94;5085652;28;20502;-58
2022/08/13 04:16:07;;;;;;;5.32;4.50;;;;;;;24.03;55.19;94642.06;5054738;28;20029;-56
2022/08/13 04:18:35;;;;;;;5.97;4.60;;;;;;;23.51;55.70;94581.22;5079274;28;20024;-58
2022/08/13 04:21:01;;;;;;;6.07;5.10;;;;;;;24.03;55.30;94642.06;5051397;28;20055;-56
2022/08/13 04:23:27;;;;;;;6.22;4.50;;;;;;;24.12;55.88;94649.84;5059174;28;20214;-58
2022/08/13 04:25:54;;;;;;;6.85;4.57;;;;;;;24.12;55.45;94657.28;5072075;28;20553;-58
2022/08/13 04:28:21;;;;;;;6.28;4.07;;;;;;;24.12;55.33;94663.47;5060651;28;20124;-55
2022/08/13 04:30:47;;;;;;;6.20;4.90;;;;;;;24.07;55.32;94658.13;5083395;28;20035;-56
2022/08/13 04:33:14;;;;;;;6.20;5.10;;;;;;;24.08;55.40;94654.88;5072570;28;20059;-59
2022/08/13 04:35:41;;;;;;;6.95;4.70;;;;;;;23.42;55.47;94580.84;5074810;28;20032;-58
2022/08/13 04:38:06;;;;;;;6.15;4.65;;;;;;;23.94;55.47;94628.09;5081420;28;20139;-57
2022/08/13 04:40:35;;;;;;;5.25;4.75;;;;;;;24.12;55.24;94649.84;5043912;28;20033;-59
2022/08/13 04:43:00;;;;;;;5.75;4.72;;;;;;;23.93;55.34;94627.38;5081024;28;20032;-59
2022/08/13 04:45:27;;;;;;;4.95;4.38;;;;;;;23.96;55.56;94626.31;5070492;28;20094;-57
2022/08/13 04:47:58;;;;;;;7.93;4.80;;;;;;;24.09;56.05;94639.97;5076120;28;20177;-59
2022/08/13 04:50:25;;;;;;;7.55;5.00;;;;;;;23.34;55.28;94528.22;5049007;28;20601;-55
2022/08/13 04:52:51;;;;;;;5.25;4.45;;;;;;;24.05;55.36;94633.34;5061779;28;20023;-56
2022/08/13 04:55:17;;;;;;;8.32;4.95;;;;;;;24.16;54.95;94650.28;5086614;28;20020;-60
2022/08/13 04:57:42;;;;;;;6.20;5.35;;;;;;;24.14;55.21;94647.34;5067837;28;20048;-58
2022/08/13 05:00:09;;;;;;;7.82;5.50;;;;;;;24.06;55.38;94624.66;5073557;28;20051;-59
2022/08/13 05:02:41;;;;;;;6.63;5.55;;;;;;;23.92;55.43;94614.97;5066523;28;20158;-57
2022/08/13 05:05:07;;;;;;;6.78;4.82;;;;;;;24.17;55.23;94649.03;5049089;28;20048;-54
2022/08/13 05:07:33;;;;;;;5.65;4.50;;;;;;;24.15;55.64;94648.78;5063902;28;20514;-54
2022/08/13 05:09:58;;;;;;;6.53;5.05;;;;;;;24.24;55.30;94645.66;5062765;28;20044;-59
2022/08/13 05:12:24;;;;;;;6.15;5.13;;;;;;;23.94;55.51;94620.63;5079757;28;20040;-55
2022/08/13 05:14:50;;;;;;;5.95;5.13;;;;;;;24.25;55.75;94647.13;5072963;28;20036;-56
2022/08/13 05:17:15;;;;;;;6.18;5.13;;;;;;;24.21;55.25;94648.69;5066444;28;20637;-58
2022/08/13 05:19:42;;;;;;;5.88;5.15;;;;;;;24.31;55.62;94642.31;5064149;28;20024;-57
2022/08/13 05:22:07;;;;;;;6.10;5.20;;;;;;;24.34;55.33;94660.41;5044836;28;20027;-56
2022/08/13 05:24:34;;;;;;;6.45;5.10;;;;;;;24.41;54.82;94651.59;5046522;28;20794;-57
2022/08/13 05:26:59;;;;;;;6.60;5.40;;;;;;;23.87;55.30;94580.38;5052993;28;20136;-57
2022/08/13 05:29:25;;;;;;;7.10;5.20;;;;;;;24.53;54.52;94650.13;5045156;28;20029;-55
2022/08/13 05:31:53;;;;;;;6.93;5.60;;;;;;;24.56;54.43;94654.53;5044135;28;20506;-62
2022/08/13 05:34:19;;;;;;;6.47;5.60;;;;;;;24.48;54.20;94643.50;5044129;28;20032;-58
2022/08/13 05:36:46;;;;;;;7.53;5.82;;;;;;;24.28;53.50;94621.53;5042487;28;20511;-56
2022/08/13 05:39:13;;;;;;;9.80;5.85;;;;;;;24.56;53.26;94660.00;5043418;28;20029;-57
2022/08/13 05:41:39;;;;;;;8.82;5.82;;;;;;;24.50;53.07;94634.78;5043176;28;20167;-55
2022/08/13 05:44:04;;;;;;;7.00;5.50;;;;;;;24.41;53.44;94622.28;5051055;28;20058;-55
2022/08/13 05:46:30;;;;;;;7.35;5.15;;;;;;;24.23;52.74;94600.53;5047239;28;20051;-55
2022/08/13 05:48:58;;;;;;;7.07;5.60;;;;;;;24.74;52.82;94659.13;5050293;28;20044;-54
2022/08/13 05:51:34;;;;;;;7.10;5.47;;;;;;;24.68;52.81;94639.38;5056890;28;20419;-56
2022/08/13 05:54:00;;;;;;;5.95;5.35;;;;;;;24.35;52.59;94569.09;5050937;28;20041;-56
2022/08/13 05:56:38;;;;;;;8.35;5.70;;;;;;;25.01;51.96;94651.13;5064354;28;20039;-54
2022/08/13 06:03:22;;;;;;;7.00;5.28;;;;;;;25.06;51.90;94653.00;5062122;28;20032;-54
2022/08/13 06:04:40;;;;;;;8.73;5.22;;;;;;;25.19;51.46;94655.72;5043987;28;20511;-56
2022/08/13 06:07:12;;;;;;;7.22;5.68;;;;;;;25.13;51.29;94652.38;5062325;28;20052;-57
2022/08/13 06:09:38;;;;;;;5.88;5.15;;;;;;;25.30;51.07;94650.00;5076995;28;20124;-55
2022/08/13 06:12:03;;;;;;;7.28;5.55;;;;;;;25.27;51.47;94656.53;5048253;28;20068;-56
2022/08/13 06:14:33;;;;;;;7.50;5.57;;;;;;;25.47;51.33;94661.31;5049080;28;20025;-55
2022/08/13 06:16:59;;;;;;;7.20;5.70;;;;;;;25.61;50.48;94662.75;5057883;28;20596;-56
2022/08/13 06:19:26;;;;;;;6.18;5.40;;;;;;;25.30;50.68;94617.22;5041934;28;20403;-57
2022/08/13 06:21:52;;;;;;;7.18;5.68;;;;;;;25.74;49.81;94659.97;5045383;28;20044;-56
2022/08/13 06:24:17;;;;;;;6.72;5.45;;;;;;;25.77;50.26;94658.91;5039402;28;20036;-56
2022/08/13 06:26:43;;;;;;;7.22;5.90;;;;;;;25.75;50.01;94666.91;5053622;28;20040;-55
2022/08/13 06:29:08;;;;;;;6.75;5.05;;;;;;;25.53;50.38;94640.03;5067917;28;20044;-55
2022/08/13 06:31:34;;;;;;;8.98;5.60;;;;;;;25.74;50.10;94654.50;5049248;28;20028;-54
2022/08/13 06:33:59;;;;;;;7.35;5.60;;;;;;;25.80;49.52;94642.91;5045294;28;20033;-53
2022/08/13 06:36:26;;;;;;;6.60;5.03;;;;;;;25.94;49.41;94657.97;5040396;28;20513;-56
2022/08/13 06:38:52;;;;;;;5.80;5.22;;;;;;;26.04;49.51;94661.72;5063794;28;20041;-55
2022/08/13 06:41:19;;;;;;;7.40;5.88;;;;;;;25.84;49.40;94637.84;5045050;28;20043;-56
2022/08/13 06:43:52;;;;;;;6.50;4.97;;;;;;;26.04;49.17;94645.28;5060981;28;20107;-54
2022/08/13 06:46:22;;;;;;;7.57;5.38;;;;;;;26.13;49.11;94658.50;5062210;28;20025;-54
2022/08/13 06:48:48;;;;;;;7.45;5.00;;;;;;;26.30;48.47;94656.81;5062130;28;20097;-54
2022/08/13 06:51:13;;;;;;;6.78;5.60;;;;;;;26.43;48.66;94653.28;5062938;28;20036;-54
2022/08/13 06:53:42;;;;;;;7.18;5.68;;;;;;;26.34;48.75;94651.03;5053108;28;20112;-55
2022/08/13 06:56:14;;;;;;;7.82;6.18;;;;;;;26.38;48.20;94656.88;5041818;28;20143;-57
2022/08/13 06:58:41;;;;;;;6.40;5.70;;;;;;;26.46;48.38;94657.69;5025259;28;20108;-56
2022/08/13 07:01:07;;;;;;;6.50;5.25;;;;;;;26.45;47.94;94639.75;5059261;28;20036;-55
2022/08/13 07:03:33;;;;;;;7.50;5.43;;;;;;;26.54;47.87;94653.69;4995629;28;20375;-55
2022/08/13 07:05:59;;;;;;;8.65;5.90;;;;;;;26.27;47.97;94596.91;5053638;28;20037;-55
2022/08/13 07:08:26;;;;;;;6.88;5.43;;;;;;;26.27;47.48;94608.63;5052650;28;20029;-58
2022/08/13 07:11:21;;;;;;;7.28;5.55;;;;;;;26.73;47.81;94658.94;5060160;28;20124;-55
2022/08/13 07:13:45;;;;;;;8.23;5.40;;;;;;;26.71;47.39;94656.75;5071273;28;20059;-55
2022/08/13 07:16:12;;;;;;;6.55;4.97;;;;;;;26.85;47.34;94666.31;5064183;28;20028;-55
2022/08/13 07:18:38;;;;;;;6.30;5.32;;;;;;;26.59;47.80;94643.88;5079527;28;20024;-53
2022/08/13 07:21:07;;;;;;;6.75;5.32;;;;;;;26.73;47.52;94664.41;5053995;28;20047;-54
2022/08/13 07:23:33;;;;;;;6.00;5.35;;;;;;;26.47;47.35;94616.06;5064488;28;20115;-56
2022/08/13 07:25:58;;;;;;;8.15;5.57;;;;;;;26.54;47.63;94645.47;5065423;28;20174;-54
2022/08/13 07:28:27;;;;;;;7.40;5.88;;;;;;;26.30;47.74;94634.19;5079092;28;20027;-53
2022/08/13 07:30:53;;;;;;;6.70;5.43;;;;;;;26.41;48.14;94667.50;5060390;28;20048;-54
2022/08/13 07:33:19;;;;;;;6.45;5.13;;;;;;;26.32;47.92;94650.81;5053757;28;20028;-55
2022/08/13 07:35:45;;;;;;;7.55;5.75;;;;;;;26.33;48.13;94671.44;5044898;28;20047;-56
2022/08/13 07:38:10;;;;;;;7.72;5.25;;;;;;;26.15;48.01;94661.44;5078081;28;20421;-56
2022/08/13 07:40:35;;;;;;;9.30;5.60;;;;;;;26.08;48.58;94667.56;5063838;28;20595;-55
2022/08/13 07:43:04;;;;;;;6.90;5.43;;;;;;;26.15;48.23;94666.91;5098292;28;20025;-56
2022/08/13 07:45:29;;;;;;;6.90;5.20;;;;;;;26.00;48.23;94653.09;5040292;28;20112;-56
2022/08/13 07:47:55;;;;;;;7.22;5.70;;;;;;;26.00;48.74;94668.78;5067680;28;20185;-56
2022/08/13 07:50:21;;;;;;;5.90;5.30;;;;;;;25.91;48.93;94663.78;5077195;28;20025;-55
2022/08/13 07:52:52;;;;;;;6.75;4.80;;;;;;;25.99;48.38;94654.38;5077615;28;20016;-57
2022/08/13 07:55:19;;;;;;;8.25;5.63;;;;;;;26.00;49.08;94661.31;5056458;28;20029;-56
2022/08/13 07:57:46;;;;;;;6.63;5.43;;;;;;;26.02;48.88;94658.78;5050593;28;20043;-54
2022/08/13 08:00:18;;;;;;;7.45;5.20;;;;;;;25.96;48.74;94654.69;5060853;28;20521;-53
2022/08/13 08:02:43;;;;;;;8.43;6.32;;;;;;;26.13;48.76;94655.75;5077578;28;20645;-55
2022/08/13 08:05:12;;;;;;;6.38;5.65;;;;;;;25.91;48.63;94618.00;5078876;28;20040;-54
2022/08/13 08:07:40;;;;;;;7.70;5.07;;;;;;;26.16;48.24;94657.44;5060919;28;20052;-54
2022/08/13 08:10:06;;;;;;;6.88;5.28;;;;;;;25.53;48.47;94558.75;5058217;28;20032;-54
2022/08/13 08:12:37;;;;;;;7.45;5.45;;;;;;;26.06;48.87;94653.69;5060544;28;20036;-54
2022/08/13 08:15:07;;;;;;;8.15;5.40;;;;;;;26.04;49.14;94661.72;5070680;28;20094;-54
2022/08/13 08:17:32;;;;;;;;;;;;;;;25.93;49.30;94656.53;5043553;28;20090;-55
2022/08/13 08:19:58;;;;;;;8.23;5.55;;;;;;;25.68;49.15;94601.91;5051331;28;19935;-55
2022/08/13 08:22:23;;;;;;;7.68;6.00;;;;;;;25.95;49.22;94658.72;5046442;28;20029;-54
2022/08/13 08:24:50;;;;;;;8.77;5.95;;;;;;;25.63;49.20;94610.97;5081553;28;20044;-54
2022/08/13 08:27:16;;;;;;;8.32;5.85;;;;;;;25.97;49.12;94656.91;5068104;28;20041;-55
2022/08/13 08:29:44;;;;;;;6.45;5.78;;;;;;;25.78;49.43;94643.97;5071419;28;20032;-56
2022/08/13 08:32:11;;;;;;;6.90;5.40;;;;;;;25.85;49.69;94661.16;5066573;28;20063;-56
2022/08/13 08:34:39;;;;;;;8.52;5.88;;;;;;;25.28;49.40;94543.22;5040055;28;20096;-55
2022/08/13 08:37:05;;;;;;;6.88;5.30;;;;;;;25.93;49.59;94656.53;5074041;28;20048;-55
2022/08/13 08:45:00;;;;;;;6.88;5.50;;;;;;;25.91;49.49;94653.56;5077684;28;20182;-55
2022/08/13 08:47:35;;;;;;;8.23;6.32;;;;;;;25.82;49.50;94645.81;5077381;28;20122;-55
2022/08/13 08:50:01;;;;;;;9.73;6.68;;;;;;;25.84;49.71;94632.34;5059155;28;20038;-55
2022/08/13 08:53:19;;;;;;;8.70;5.80;;;;;;;25.88;49.63;94640.94;5076997;28;20107;-55
2022/08/13 08:55:12;;;;;;;9.30;6.68;;;;;;;25.81;49.76;94638.91;5040746;28;20519;-57
2022/08/13 08:57:39;;;;;;;7.47;6.35;;;;;;;25.76;49.75;94630.09;5057726;28;20045;-55
2022/08/13 09:00:05;;;;;;;7.35;5.93;;;;;;;25.79;49.73;94640.69;5057699;28;20037;-54
2022/08/13 09:02:33;;;;;;;7.53;5.88;;;;;;;25.19;50.12;94562.09;5054935;28;20115;-54
2022/08/13 09:04:59;;;;;;;8.15;6.15;;;;;;;25.80;50.03;94637.44;5084252;28;20045;-54
2022/08/13 09:07:24;;;;;;;8.10;6.20;;;;;;;25.88;50.04;94643.69;5064737;28;20048;-54
2022/08/13 09:09:53;;;;;;;9.00;5.63;;;;;;;25.76;50.26;94646.50;5049587;28;20056;-54
2022/08/13 09:12:23;;;;;;;9.07;6.25;;;;;;;25.78;50.42;94638.50;5042613;28;20035;-53
2022/08/13 09:14:49;;;;;;;11.63;6.72;;;;;;;25.72;50.41;94646.09;5033685;28;20044;-55
2022/08/13 09:17:14;;;;;;;7.60;6.00;;;;;;;25.76;50.78;94635.56;5052722;28;20425;-55
2022/08/13 09:19:41;;;;;;;9.38;6.38;;;;;;;25.67;51.02;94627.81;5085584;28;20023;-54
2022/08/13 09:22:06;;;;;;;8.98;6.90;;;;;;;25.67;52.11;94644.22;5051151;28;20021;-57
2022/08/13 09:24:32;;;;;;;8.98;6.05;;;;;;;25.69;52.69;94641.69;5073594;28;20024;-54
2022/08/13 09:26:59;;;;;;;9.02;6.80;;;;;;;25.56;53.69;94628.03;5073711;28;20094;-54
2022/08/13 09:29:24;;;;;;;8.98;6.35;;;;;;;25.69;54.12;94647.16;5066968;28;20119;-53
2022/08/13 09:31:50;;;;;;;8.98;6.78;;;;;;;25.52;54.70;94644.78;5066802;28;20100;-53
2022/08/13 09:34:16;;;;;;;9.32;6.57;;;;;;;25.57;54.82;94652.13;5075992;28;20021;-57
2022/08/13 09:36:42;;;;;;;8.27;6.63;;;;;;;25.73;54.81;94642.09;5073189;28;20100;-54
2022/08/13 09:39:08;;;;;;;8.75;7.60;;;;;;;25.40;55.93;94626.44;5072909;28;20036;-56
2022/08/13 09:41:48;;;;;;;10.68;7.35;;;;;;;25.56;56.26;94647.19;5041428;28;20047;-56
2022/08/13 09:44:15;;;;;;;9.00;7.25;;;;;;;25.53;56.46;94646.25;5070570;28;20036;-54
2022/08/13 09:46:42;;;;;;;11.30;7.47;;;;;;;25.51;56.86;94632.38;5065552;28;20051;-55
2022/08/13 09:49:08;;;;;;;10.45;7.10;;;;;;;25.47;57.84;94644.91;5065694;28;20032;-54
2022/08/13 09:51:35;;;;;;;12.38;8.15;;;;;;;25.22;57.68;94608.22;5046555;28;20589;-55
2022/08/13 09:54:05;;;;;;;9.88;7.47;;;;;;;25.39;58.18;94642.09;5065015;28;20091;-54
2022/08/13 09:56:32;;;;;;;9.07;7.03;;;;;;;25.45;57.85;94639.22;5053671;28;20036;-53
2022/08/13 09:58:58;;;;;;;9.02;7.10;;;;;;;25.33;58.82;94627.84;5054077;28;21669;-54
2022/08/13 10:01:24;;;;;;;11.85;7.70;;;;;;;25.28;59.13;94636.16;5080008;28;20414;-54
2022/08/13 10:03:50;;;;;;;11.75;7.93;;;;;;;25.14;58.31;94615.59;5066476;28;20040;-55
2022/08/13 10:06:18;;;;;;;9.65;7.38;;;;;;;25.21;58.29;94628.59;5077885;28;20036;-54
2022/08/13 10:08:46;;;;;;;10.05;7.90;;;;;;;25.46;58.74;94640.72;5055419;28;20185;-54
2022/08/13 10:11:13;;;;;;;11.88;7.78;;;;;;;24.80;58.13;94564.91;5062069;28;20131;-54
2022/08/13 10:13:38;;;;;;;10.23;7.65;;;;;;;25.35;58.23;94632.75;5070854;28;20032;-54
2022/08/13 10:16:04;;;;;;;9.02;7.88;;;;;;;25.25;58.62;94639.94;5066438;28;20422;-54
2022/08/13 10:18:31;;;;;;;9.80;7.95;;;;;;;25.31;58.71;94632.34;5081581;28;20093;-55
2022/08/13 10:20:56;;;;;;;11.45;7.72;;;;;;;25.31;58.54;94624.16;5048712;28;20503;-54
2022/08/13 10:23:22;;;;;;;11.10;8.55;;;;;;;25.35;59.16;94632.75;5067528;28;20037;-54
2022/08/13 10:25:49;;;;;;;11.55;8.90;;;;;;;25.27;59.41;94623.00;5066792;28;20442;-54
2022/08/13 10:28:18;;;;;;;12.15;8.75;;;;;;;25.22;59.97;94621.88;5048894;28;20044;-55
2022/08/13 10:30:44;;;;;;;10.20;8.23;;;;;;;25.23;60.44;94628.06;5049883;28;20208;-55
2022/08/13 10:33:11;;;;;;;9.23;7.78;;;;;;;25.18;60.39;94631.66;5077447;28;20516;-54
2022/08/13 10:35:37;;;;;;;10.82;8.55;;;;;;;25.36;59.51;94626.75;5078972;28;20047;-54
2022/08/13 10:38:05;;;;;;;11.02;8.52;;;;;;;25.21;60.15;94620.41;5069002;28;20044;-54
2022/08/13 10:40:30;;;;;;;10.65;8.32;;;;;;;25.16;60.24;94618.53;5088115;28;20517;-57
2022/08/13 10:43:06;;;;;;;11.15;8.73;;;;;;;25.10;61.15;94626.09;5063237;28;20032;-55
2022/08/13 10:45:32;;;;;;;10.35;7.82;;;;;;;25.16;61.01;94617.81;5071776;28;20044;-54
2022/08/13 10:47:57;;;;;;;13.07;10.07;;;;;;;25.21;60.90;94620.41;5058844;28;20036;-54
2022/08/13 10:50:29;;;;;;;11.38;8.00;;;;;;;25.19;61.00;94622.94;5080568;28;20674;-54
2022/08/13 10:52:55;;;;;;;9.85;8.45;;;;;;;25.19;60.74;94617.47;5088734;28;20032;-58
2022/08/13 10:55:21;;;;;;;10.70;7.90;;;;;;;25.19;61.15;94628.41;5094223;28;20028;-54
2022/08/13 10:57:48;;;;;;;11.93;8.68;;;;;;;25.23;61.38;94628.81;5071117;28;20687;-54
2022/08/13 11:00:14;;;;;;;12.35;9.05;;;;;;;25.20;61.82;94632.59;5065457;28;20943;-54
2022/08/13 11:02:51;;;;;;;13.23;9.18;;;;;;;25.06;61.89;94614.75;5073711;28;20105;-54
2022/08/13 11:05:25;;;;;;;10.68;8.90;;;;;;;24.61;62.09;94552.66;5047127;28;20075;-55
2022/08/13 11:07:51;;;;;;;12.05;8.90;;;;;;;25.10;62.78;94630.84;5028410;28;20052;-58
2022/08/13 11:10:18;;;;;;;13.85;9.60;;;;;;;25.07;64.02;94629.91;5076081;28;20016;-55
2022/08/13 11:12:55;;;;;;;11.52;8.38;;;;;;;24.50;63.00;94541.97;5077880;28;20025;-56
2022/08/13 11:15:24;;;;;;;10.75;8.40;;;;;;;25.19;62.40;94622.94;5067975;28;20055;-54
2022/08/13 11:17:50;;;;;;;9.75;8.63;;;;;;;25.13;62.80;94625.06;5094144;28;20732;-55
2022/08/13 11:20:19;;;;;;;10.93;8.15;;;;;;;25.11;63.19;94611.19;5074394;28;20100;-54
2022/08/13 11:22:46;;;;;;;9.15;8.00;;;;;;;25.23;62.57;94609.69;5058255;28;20554;-56
2022/08/13 11:25:12;;;;;;;10.88;8.07;;;;;;;25.25;62.06;94603.69;5075491;28;20056;-55
2022/08/13 11:27:37;;;;;;;10.20;7.85;;;;;;;25.22;62.29;94594.53;5080881;28;20240;-54
2022/08/13 11:30:04;;;;;;;10.27;7.95;;;;;;;25.28;61.91;94597.88;5049032;28;20045;-56
2022/08/13 11:32:30;;;;;;;9.63;7.63;;;;;;;25.28;61.84;94597.88;5072836;28;20036;-55
2022/08/13 11:34:55;;;;;;;12.05;7.93;;;;;;;25.30;61.55;94595.34;5075778;28;20096;-54
2022/08/13 11:37:21;;;;;;;11.82;8.23;;;;;;;25.31;61.14;94607.03;5062779;28;20036;-54
2022/08/13 11:39:46;;;;;;;9.55;7.85;;;;;;;25.36;61.02;94604.16;5079280;28;20028;-54
2022/08/13 11:42:12;;;;;;;7.82;7.00;;;;;;;25.28;60.46;94597.88;5071597;28;20045;-55
2022/08/13 11:44:37;;;;;;;8.95;7.80;;;;;;;25.26;60.92;94605.88;5068951;28;20036;-55
2022/08/13 11:47:03;;;;;;;8.90;7.65;;;;;;;25.22;60.44;94616.41;5043777;28;20170;-54
2022/08/13 11:49:28;;;;;;;8.68;7.75;;;;;;;25.22;60.39;94627.34;5026654;28;20043;-55